createdAt,value
2023-04-03T00:00:11.272Z,2.42
2023-04-03T00:02:59.051Z,2.40
2023-04-03T00:05:27.451Z,2.40
2023-04-03T00:07:55.241Z,2.44
2023-04-03T00:10:23.019Z,2.44
2023-04-03T00:12:51.028Z,2.44
2023-04-03T00:15:18.840Z,2.43
2023-04-03T00:17:46.964Z,2.44
2023-04-03T00:20:14.781Z,2.46
2023-04-03T00:22:42.452Z,2.55
2023-04-03T00:25:10.118Z,2.55
2023-04-03T00:27:37.871Z,2.52
2023-04-03T00:30:05.635Z,2.50
2023-04-03T00:32:33.456Z,2.47
2023-04-03T00:35:01.362Z,2.46
2023-04-03T00:37:29.127Z,2.52
2023-04-03T00:39:56.792Z,2.55
2023-04-03T00:42:24.460Z,2.51
2023-04-03T00:44:52.213Z,2.43
2023-04-03T00:47:19.874Z,2.38
2023-04-03T00:49:47.842Z,2.37
2023-04-03T00:52:16.426Z,2.42
2023-04-03T00:54:44.093Z,2.47
2023-04-03T00:57:12.160Z,2.49
2023-04-03T00:59:40.043Z,2.46
2023-04-03T01:02:07.789Z,2.46
2023-04-03T01:04:35.918Z,2.44
2023-04-03T01:07:03.837Z,2.44
2023-04-03T01:09:32.008Z,2.44
2023-04-03T01:11:59.665Z,2.43
2023-04-03T01:14:27.329Z,2.42
2023-04-03T01:16:55.102Z,2.38
2023-04-03T01:19:22.755Z,2.37
2023-04-03T01:21:50.517Z,2.35
2023-04-03T01:24:18.189Z,2.34
2023-04-03T01:26:45.949Z,2.40
2023-04-03T01:29:13.709Z,2.40
2023-04-03T01:31:41.385Z,2.35
2023-04-03T01:34:09.141Z,2.33
2023-04-03T01:36:37.124Z,2.35
2023-04-03T01:39:04.872Z,2.37
2023-04-03T01:41:32.637Z,2.46
2023-04-03T01:44:00.501Z,2.53
2023-04-03T01:46:28.163Z,2.56
2023-04-03T01:48:55.818Z,2.51
2023-04-03T01:51:23.482Z,2.46
2023-04-03T01:53:52.693Z,2.45
2023-04-03T01:56:21.429Z,2.41
2023-04-03T01:58:49.242Z,2.45
2023-04-03T02:01:17.392Z,2.47
2023-04-03T02:03:45.312Z,2.43
2023-04-03T02:06:13.072Z,2.44
2023-04-03T02:08:41.518Z,2.42
2023-04-03T02:11:09.177Z,2.42
2023-04-03T02:13:37.134Z,2.38
2023-04-03T02:16:04.806Z,2.33
2023-04-03T02:18:32.468Z,2.27
2023-04-03T02:21:00.147Z,2.19
2023-04-03T02:23:27.896Z,2.13
2023-04-03T02:25:55.656Z,2.08
2023-04-03T02:28:23.316Z,2.03
2023-04-03T02:30:51.024Z,2.02
2023-04-03T02:33:19.151Z,2.06
2023-04-03T02:35:54.270Z,2.05
2023-04-03T02:38:22.173Z,1.98
2023-04-03T02:40:49.919Z,1.93
2023-04-03T02:43:17.683Z,1.91
2023-04-03T02:45:45.363Z,1.87
2023-04-03T02:48:13.326Z,1.87
2023-04-03T02:50:40.978Z,1.89
2023-04-03T02:53:08.744Z,1.89
2023-04-03T02:55:36.404Z,1.85
2023-04-03T02:58:04.786Z,1.79
2023-04-03T03:00:32.757Z,1.75
2023-04-03T03:03:00.952Z,1.72
2023-04-03T03:05:28.828Z,1.78
2023-04-03T03:07:56.965Z,1.77
2023-04-03T03:10:24.938Z,1.77
2023-04-03T03:12:52.595Z,1.76
2023-04-03T03:15:20.668Z,1.75
2023-04-03T03:17:48.471Z,1.78
2023-04-03T03:20:16.717Z,1.81
2023-04-03T03:22:44.471Z,1.79
2023-04-03T03:25:12.239Z,1.74
2023-04-03T03:27:39.900Z,1.72
2023-04-03T03:30:07.665Z,1.74
2023-04-03T03:32:35.688Z,1.76
2023-04-03T03:35:03.443Z,1.78
2023-04-03T03:37:31.466Z,1.78
2023-04-03T03:39:59.227Z,1.77
2023-04-03T03:42:26.991Z,1.75
2023-04-03T03:44:54.754Z,1.70
2023-04-03T03:47:22.595Z,1.65
2023-04-03T03:49:50.296Z,1.63
2023-04-03T03:52:18.048Z,1.55
2023-04-03T03:54:45.709Z,1.51
2023-04-03T03:57:13.590Z,1.52
2023-04-03T03:59:43.032Z,1.50
2023-04-03T04:02:11.199Z,1.46
2023-04-03T04:04:39.024Z,1.46
2023-04-03T04:07:06.679Z,1.41
2023-04-03T04:09:34.344Z,1.39
2023-04-03T04:12:02.031Z,1.36
2023-04-03T04:14:29.791Z,1.36
2023-04-03T04:16:57.510Z,1.39
2023-04-03T04:19:25.420Z,1.41
2023-04-03T04:21:53.164Z,1.42
2023-04-03T04:24:20.827Z,1.40
2023-04-03T04:26:48.591Z,1.38
2023-04-03T04:29:16.559Z,1.38
2023-04-03T04:31:44.223Z,1.33
2023-04-03T04:34:12.396Z,1.33
2023-04-03T04:36:40.121Z,1.40
2023-04-03T04:39:08.022Z,1.46
2023-04-03T04:41:35.998Z,1.45
2023-04-03T04:44:03.656Z,1.37
2023-04-03T04:46:31.566Z,1.30
2023-04-03T04:48:59.283Z,1.26
2023-04-03T04:51:27.503Z,1.24
2023-04-03T04:53:56.318Z,1.23
2023-04-03T04:56:24.317Z,1.19
2023-04-03T04:58:51.978Z,1.16
2023-04-03T05:01:19.966Z,1.09
2023-04-03T05:03:48.938Z,1.07
2023-04-03T05:06:16.610Z,1.08
2023-04-03T05:08:44.366Z,1.09
2023-04-03T05:11:12.233Z,1.08
2023-04-03T05:13:40.016Z,1.07
2023-04-03T05:16:07.776Z,1.07
2023-04-03T05:18:36.452Z,1.02
2023-04-03T05:21:04.211Z,1.04
2023-04-03T05:23:31.875Z,1.10
2023-04-03T05:25:59.530Z,1.06
2023-04-03T05:28:27.303Z,1.04
2023-04-03T05:30:55.987Z,1.02
2023-04-03T05:33:23.663Z,1.00
2023-04-03T05:35:51.422Z,0.99
2023-04-03T05:38:19.173Z,0.98
2023-04-03T05:40:46.935Z,0.93
2023-04-03T05:43:14.602Z,0.92
2023-04-03T05:45:42.938Z,0.88
2023-04-03T05:48:11.986Z,0.88
2023-04-03T05:50:42.735Z,0.89
2023-04-03T05:53:10.572Z,0.93
2023-04-03T05:55:38.591Z,0.92
2023-04-03T05:58:06.512Z,0.86
2023-04-03T06:00:34.186Z,0.82
2023-04-03T06:03:02.272Z,0.80
2023-04-03T06:05:30.203Z,0.77
2023-04-03T06:07:58.380Z,0.79
2023-04-03T06:10:26.264Z,0.79
2023-04-03T06:12:53.913Z,0.78
2023-04-03T06:15:22.399Z,0.82
2023-04-03T06:17:50.323Z,0.85
2023-04-03T06:20:18.123Z,0.85
2023-04-03T06:22:45.997Z,0.86
2023-04-03T06:25:13.760Z,0.85
2023-04-03T06:27:41.521Z,0.84
2023-04-03T06:30:09.278Z,0.79
2023-04-03T06:32:37.088Z,0.77
2023-04-03T06:35:04.912Z,0.76
2023-04-03T06:37:33.597Z,0.69
2023-04-03T06:40:04.225Z,0.75
2023-04-03T06:42:31.993Z,0.79
2023-04-03T06:44:59.674Z,0.79
2023-04-03T06:47:27.454Z,0.74
2023-04-03T06:49:55.182Z,0.68
2023-04-03T06:52:23.155Z,0.64
2023-04-03T06:54:52.963Z,0.64
2023-04-03T06:57:20.759Z,0.73
2023-04-03T06:59:48.597Z,0.73
2023-04-03T07:02:16.458Z,0.70
2023-04-03T07:04:44.240Z,0.64
2023-04-03T07:07:12.088Z,0.61
2023-04-03T07:09:39.755Z,0.60
2023-04-03T07:12:07.519Z,0.62
2023-04-03T07:14:35.692Z,0.61
2023-04-03T07:17:03.456Z,0.53
2023-04-03T07:19:31.728Z,0.46
2023-04-03T07:21:59.493Z,0.41
2023-04-03T07:24:27.464Z,0.33
2023-04-03T07:26:55.341Z,0.27
2023-04-03T07:29:23.096Z,0.19
2023-04-03T07:31:50.799Z,0.07
2023-04-03T07:34:18.727Z,0.05
2023-04-03T07:36:46.487Z,0.03
2023-04-03T07:39:14.364Z,-0.02
2023-04-03T07:41:42.123Z,-0.11
2023-04-03T07:44:11.108Z,-0.23
2023-04-03T07:46:39.594Z,-0.22
2023-04-03T07:49:07.354Z,-0.17
2023-04-03T07:51:36.046Z,-0.15
2023-04-03T07:54:03.712Z,-0.07
2023-04-03T07:56:31.472Z,-0.10
2023-04-03T07:58:59.237Z,-0.23
2023-04-03T08:01:27.236Z,-0.32
2023-04-03T08:03:55.102Z,-0.34
2023-04-03T08:06:32.957Z,-0.26
2023-04-03T08:09:01.038Z,-0.26
2023-04-03T08:11:28.803Z,-0.27
2023-04-03T08:13:57.284Z,-0.25
2023-04-03T08:16:26.910Z,-0.24
2023-04-03T08:18:54.860Z,-0.18
2023-04-03T08:21:22.875Z,-0.17
2023-04-03T08:23:51.413Z,-0.15
2023-04-03T08:26:19.179Z,-0.21
2023-04-03T08:28:46.834Z,-0.22
2023-04-03T08:31:14.901Z,-0.23
2023-04-03T08:33:42.784Z,-0.24
2023-04-03T08:36:10.965Z,-0.30
2023-04-03T08:38:38.844Z,-0.39
2023-04-03T08:41:06.683Z,-0.39
2023-04-03T08:43:34.345Z,-0.40
2023-04-03T08:46:02.064Z,-0.45
2023-04-03T08:48:29.872Z,-0.48
2023-04-03T08:50:57.655Z,-0.49
2023-04-03T08:53:25.679Z,-0.46
2023-04-03T08:55:53.374Z,-0.36
2023-04-03T08:58:21.039Z,-0.30
2023-04-03T09:00:48.794Z,-0.32
2023-04-03T09:03:17.110Z,-0.29
2023-04-03T09:05:45.036Z,-0.32
2023-04-03T09:08:12.701Z,-0.29
2023-04-03T09:10:40.669Z,-0.25
2023-04-03T09:13:08.432Z,-0.28
2023-04-03T09:15:39.445Z,-0.33
2023-04-03T09:18:07.657Z,-0.27
2023-04-03T09:20:36.039Z,-0.20
2023-04-03T09:23:03.997Z,-0.07
2023-04-03T09:25:32.175Z,0.05
2023-04-03T09:28:00.137Z,0.09
2023-04-03T09:30:28.725Z,0.17
2023-04-03T09:32:56.534Z,0.23
2023-04-03T09:35:36.469Z,0.24
2023-04-03T09:38:12.100Z,0.26
2023-04-03T09:40:40.543Z,0.23
2023-04-03T09:43:08.534Z,0.19
2023-04-03T09:45:36.306Z,0.21
2023-04-03T09:48:05.558Z,0.31
2023-04-03T09:50:35.435Z,0.46
2023-04-03T09:53:03.175Z,0.48
2023-04-03T09:55:31.165Z,0.46
2023-04-03T09:57:58.907Z,0.49
2023-04-03T10:00:26.568Z,0.56
2023-04-03T10:02:54.274Z,0.67
2023-04-03T10:05:22.064Z,0.72
2023-04-03T10:10:19.672Z,0.84
2023-04-03T10:12:47.364Z,0.94
2023-04-03T10:15:15.131Z,1.17
2023-04-03T10:17:43.080Z,1.28
2023-04-03T10:20:10.831Z,1.34
2023-04-03T10:22:39.511Z,1.46
2023-04-03T10:25:07.275Z,1.58
2023-04-03T10:27:35.144Z,1.65
2023-04-03T10:30:02.808Z,1.79
2023-04-03T10:32:30.599Z,1.87
2023-04-03T10:35:04.495Z,1.84
2023-04-03T10:37:37.876Z,1.80
2023-04-03T10:40:06.375Z,1.79
2023-04-03T10:42:34.116Z,1.83
2023-04-03T10:45:01.761Z,1.89
2023-04-03T10:47:30.276Z,1.97
2023-04-03T10:49:59.970Z,2.04
2023-04-03T10:52:28.142Z,2.01
2023-04-03T10:54:56.229Z,2.02
2023-04-03T10:57:23.897Z,2.05
2023-04-03T10:59:51.641Z,2.03
2023-04-03T11:02:20.512Z,2.11
2023-04-03T11:04:49.014Z,2.27
2023-04-03T11:07:16.881Z,2.43
2023-04-03T11:09:45.057Z,2.57
2023-04-03T11:12:12.819Z,2.78
2023-04-03T11:14:40.890Z,2.93
2023-04-03T11:17:08.656Z,2.95
2023-04-03T11:19:36.523Z,2.86
2023-04-03T11:22:04.906Z,2.68
2023-04-03T11:24:32.559Z,2.56
2023-04-03T11:27:00.738Z,2.42
2023-04-03T11:32:01.894Z,2.49
2023-04-03T11:34:29.559Z,2.53
2023-04-03T11:36:57.364Z,2.54
2023-04-03T11:39:25.116Z,2.49
2023-04-03T11:42:00.242Z,2.34
2023-04-03T11:44:34.860Z,2.29
2023-04-03T11:47:02.951Z,2.29
2023-04-03T11:49:30.781Z,2.32
2023-04-03T11:51:58.446Z,2.34
2023-04-03T11:54:29.998Z,2.40
2023-04-03T11:57:00.452Z,2.47
2023-04-03T11:59:29.212Z,2.42
2023-04-03T12:01:57.724Z,2.24
2023-04-03T12:04:25.868Z,2.16
2023-04-03T12:06:53.728Z,2.16
2023-04-03T12:09:21.596Z,2.23
2023-04-03T12:11:49.770Z,2.31
2023-04-03T12:14:17.941Z,2.42
2023-04-03T12:16:45.994Z,2.41
2023-04-03T12:19:13.775Z,2.45
2023-04-03T12:21:41.436Z,2.50
2023-04-03T12:24:09.200Z,2.53
2023-04-03T12:26:47.638Z,2.57
2023-04-03T12:29:17.116Z,2.61
2023-04-03T12:31:44.890Z,2.68
2023-04-03T12:34:12.650Z,2.80
2023-04-03T12:36:40.721Z,2.78
2023-04-03T12:39:08.588Z,2.67
2023-04-03T12:41:36.354Z,2.58
2023-04-03T12:44:04.015Z,2.57
2023-04-03T12:46:31.946Z,2.54
2023-04-03T12:48:59.751Z,2.53
2023-04-03T12:51:27.515Z,2.52
2023-04-03T12:53:55.275Z,2.51
2023-04-03T12:56:23.450Z,2.48
2023-04-03T12:58:51.213Z,2.44
2023-04-03T13:01:19.503Z,2.51
2023-04-03T13:03:47.346Z,2.59
2023-04-03T13:06:15.223Z,2.63
2023-04-03T13:08:42.884Z,2.61
2023-04-03T13:11:11.060Z,2.57
2023-04-03T13:13:40.048Z,2.48
2023-04-03T13:16:07.791Z,2.40
2023-04-03T13:18:35.581Z,2.33
2023-04-03T13:21:03.462Z,2.33
2023-04-03T13:23:31.416Z,2.37
2023-04-03T13:26:02.252Z,2.44
2023-04-03T13:28:29.897Z,2.51
2023-04-03T13:30:57.681Z,2.54
2023-04-03T13:33:25.443Z,2.59
2023-04-03T13:35:54.054Z,2.62
2023-04-03T13:38:21.789Z,2.65
2023-04-03T13:43:34.721Z,2.62
2023-04-03T13:46:02.638Z,2.65
2023-04-03T13:48:30.677Z,2.67
2023-04-03T13:50:58.420Z,2.66
2023-04-03T13:53:26.288Z,2.67
2023-04-03T13:55:53.909Z,2.60
2023-04-03T13:58:21.612Z,2.52
2023-04-03T14:00:49.403Z,2.44
2023-04-03T14:03:17.242Z,2.41
2023-04-03T14:05:46.448Z,2.43
2023-04-03T14:08:14.102Z,2.49
2023-04-03T14:10:41.762Z,2.57
2023-04-03T14:13:09.428Z,2.56
2023-04-03T14:15:37.354Z,2.57
2023-04-03T14:18:06.633Z,2.53
2023-04-03T14:20:35.798Z,2.52
2023-04-03T14:23:03.858Z,2.52
2023-04-03T14:25:31.622Z,2.54
2023-04-03T14:28:01.127Z,2.51
2023-04-03T14:30:28.790Z,2.53
2023-04-03T14:32:56.836Z,2.53
2023-04-03T14:35:24.741Z,2.47
2023-04-03T14:37:52.490Z,2.42
2023-04-03T14:40:20.151Z,2.42
2023-04-03T14:42:49.452Z,2.40
2023-04-03T14:45:17.120Z,2.39
2023-04-03T14:47:44.856Z,2.39
2023-04-03T14:50:12.746Z,2.41
2023-04-03T14:52:41.210Z,2.46
2023-04-03T14:55:09.604Z,2.50
2023-04-03T14:57:37.473Z,2.55
2023-04-03T15:00:05.499Z,2.65
2023-04-03T15:02:33.723Z,2.74
2023-04-03T15:05:01.795Z,2.80
2023-04-03T15:07:29.450Z,2.86
2023-04-03T15:09:57.833Z,2.95
2023-04-03T15:12:25.616Z,3.07
2023-04-03T15:15:00.251Z,3.21
2023-04-03T15:17:30.806Z,3.40
2023-04-03T15:19:58.509Z,3.48
2023-04-03T15:22:26.173Z,3.48
2023-04-03T15:24:53.845Z,3.43
2023-04-03T15:27:21.613Z,3.35
2023-04-03T15:29:49.383Z,3.35
2023-04-03T15:32:17.202Z,3.37
2023-04-03T15:34:46.332Z,3.38
2023-04-03T15:37:14.001Z,3.39
2023-04-03T15:39:41.748Z,3.37
2023-04-03T15:42:09.512Z,3.39
2023-04-03T15:44:37.504Z,3.42
2023-04-03T15:47:05.259Z,3.31
2023-04-03T15:49:33.010Z,3.20
2023-04-03T15:52:01.080Z,3.12
2023-04-03T15:54:30.641Z,3.01
2023-04-03T15:56:58.522Z,2.92
2023-04-03T15:59:26.463Z,2.87
2023-04-03T16:01:54.457Z,2.90
2023-04-03T16:04:22.320Z,2.96
2023-04-03T16:06:50.226Z,3.00
2023-04-03T16:09:17.987Z,2.98
2023-04-03T16:11:46.119Z,2.93
2023-04-03T16:14:13.823Z,2.90
2023-04-03T16:16:41.589Z,2.91
2023-04-03T16:19:09.349Z,2.87
2023-04-03T16:21:37.026Z,2.82
2023-04-03T16:24:04.717Z,2.78
2023-04-03T16:26:32.542Z,2.77
2023-04-03T16:29:00.199Z,2.69
2023-04-03T16:31:28.033Z,2.62
2023-04-03T16:33:55.724Z,2.62
2023-04-03T16:36:23.413Z,2.60
2023-04-03T16:38:51.257Z,2.60
2023-04-03T16:41:19.020Z,2.61
2023-04-03T16:43:46.800Z,2.61
2023-04-03T16:46:14.600Z,2.59
2023-04-03T16:48:42.518Z,2.55
2023-04-03T16:51:10.183Z,2.56
2023-04-03T16:53:37.956Z,2.56
2023-04-03T16:56:05.609Z,2.59
2023-04-03T16:58:33.382Z,2.63
2023-04-03T17:01:01.285Z,2.62
2023-04-03T17:03:29.430Z,2.58
2023-04-03T17:05:57.174Z,2.56
2023-04-03T17:08:24.939Z,2.56
2023-04-03T17:10:54.824Z,2.53
2023-04-03T17:13:22.724Z,2.53
2023-04-03T17:15:50.382Z,2.55
2023-04-03T17:18:18.036Z,2.56
2023-04-03T17:20:46.008Z,2.55
2023-04-03T17:23:13.676Z,2.55
2023-04-03T17:25:41.439Z,2.56
2023-04-03T17:28:09.298Z,2.56
2023-04-03T17:30:36.967Z,2.60
2023-04-03T17:33:04.650Z,2.62
2023-04-03T17:35:32.390Z,2.62
2023-04-03T17:38:00.065Z,2.61
2023-04-03T17:40:27.818Z,2.59
2023-04-03T17:42:55.476Z,2.56
2023-04-03T17:45:24.242Z,2.52
2023-04-03T17:47:52.495Z,2.50
2023-04-03T17:50:22.190Z,2.48
2023-04-03T17:52:50.337Z,2.46
2023-04-03T17:55:18.698Z,2.45
2023-04-03T17:57:46.566Z,2.43
2023-04-03T18:00:15.902Z,2.40
2023-04-03T18:02:43.670Z,2.36
2023-04-03T18:05:15.716Z,2.33
2023-04-03T18:07:47.381Z,2.29
2023-04-03T18:10:15.751Z,2.23
2023-04-03T18:12:43.629Z,2.18
2023-04-03T18:15:11.894Z,2.15
2023-04-03T18:17:39.837Z,2.12
2023-04-03T18:20:07.927Z,2.09
2023-04-03T18:22:35.773Z,2.07
2023-04-03T18:25:05.507Z,2.04
2023-04-03T18:27:33.154Z,2.00
2023-04-03T18:30:00.813Z,1.96
2023-04-03T18:32:28.494Z,1.94
2023-04-03T18:34:56.239Z,1.92
2023-04-03T18:37:24.512Z,1.89
2023-04-03T18:39:52.179Z,1.85
2023-04-03T18:42:19.942Z,1.81
2023-04-03T18:44:47.704Z,1.79
2023-04-03T18:47:15.672Z,1.77
2023-04-03T18:49:43.505Z,1.76
2023-04-03T18:52:11.302Z,1.72
2023-04-03T18:54:39.168Z,1.69
2023-04-03T18:57:06.937Z,1.64
2023-04-03T18:59:34.697Z,1.62
2023-04-03T19:02:02.428Z,1.58
2023-04-03T19:04:30.124Z,1.54
2023-04-03T19:06:57.783Z,1.52
2023-04-03T19:09:25.448Z,1.50
2023-04-03T19:11:53.312Z,1.51
2023-04-03T19:14:20.997Z,1.50
2023-04-03T19:16:48.663Z,1.50
2023-04-03T19:19:16.400Z,1.49
2023-04-03T19:21:44.178Z,1.48
2023-04-03T19:24:11.925Z,1.47
2023-04-03T19:26:39.590Z,1.46
2023-04-03T19:29:07.351Z,1.45
2023-04-03T19:31:36.968Z,1.45
2023-04-03T19:34:04.731Z,1.45
2023-04-03T19:36:32.492Z,1.45
2023-04-03T19:39:00.188Z,1.46
2023-04-03T19:41:28.322Z,1.45
2023-04-03T19:43:56.399Z,1.42
2023-04-03T19:46:24.217Z,1.40
2023-04-03T19:48:52.373Z,1.41
2023-04-03T19:51:20.102Z,1.41
2023-04-03T19:53:48.892Z,1.41
2023-04-03T19:56:17.178Z,1.39
2023-04-03T19:58:45.896Z,1.37
2023-04-03T20:01:13.710Z,1.36
2023-04-03T20:03:43.120Z,1.36
2023-04-03T20:06:11.088Z,1.37
2023-04-03T20:08:39.668Z,1.39
2023-04-03T20:11:07.431Z,1.42
2023-04-03T20:13:35.193Z,1.42
2023-04-03T20:16:03.624Z,1.43
2023-04-03T20:18:31.647Z,1.45
2023-04-03T20:20:59.614Z,1.46
2023-04-03T20:23:27.477Z,1.45
2023-04-03T20:26:08.801Z,1.45
2023-04-03T20:28:38.392Z,1.46
2023-04-03T20:31:06.586Z,1.49
2023-04-03T20:33:35.605Z,1.51
2023-04-03T20:36:04.423Z,1.49
2023-04-03T20:38:32.212Z,1.50
2023-04-03T20:41:00.443Z,1.50
2023-04-03T20:43:28.547Z,1.50
2023-04-03T20:45:56.619Z,1.50
2023-04-03T20:48:24.325Z,1.50
2023-04-03T20:50:52.190Z,1.49
2023-04-03T20:53:20.923Z,1.50
2023-04-03T20:55:48.582Z,1.50
2023-04-03T20:58:16.768Z,1.48
2023-04-03T21:00:44.475Z,1.43
2023-04-03T21:03:14.118Z,1.40
2023-04-03T21:05:41.892Z,1.37
2023-04-03T21:08:10.985Z,1.32
2023-04-03T21:10:39.117Z,1.30
2023-04-03T21:13:07.333Z,1.29
2023-04-03T21:15:34.996Z,1.28
2023-04-03T21:18:02.754Z,1.28
2023-04-03T21:20:30.630Z,1.27
2023-04-03T21:22:58.453Z,1.26
2023-04-03T21:25:26.160Z,1.25
2023-04-03T21:27:54.434Z,1.25
2023-04-03T21:30:23.036Z,1.25
2023-04-03T21:32:50.842Z,1.25
2023-04-03T21:35:18.646Z,1.25
2023-04-03T21:37:46.519Z,1.26
2023-04-03T21:40:14.183Z,1.26
2023-04-03T21:42:42.168Z,1.26
2023-04-03T21:45:10.430Z,1.27
2023-04-03T21:47:38.517Z,1.28
2023-04-03T21:50:06.256Z,1.37
2023-04-03T21:52:33.918Z,1.41
2023-04-03T21:55:01.772Z,1.40
2023-04-03T21:57:29.958Z,1.39
2023-04-03T21:59:57.858Z,1.39
2023-04-03T22:02:27.284Z,1.38
2023-04-03T22:04:55.722Z,1.36
2023-04-03T22:07:23.574Z,1.34
2023-04-03T22:09:51.541Z,1.31
2023-04-03T22:12:19.511Z,1.26
2023-04-03T22:14:47.585Z,1.20
2023-04-03T22:17:15.552Z,1.15
2023-04-03T22:19:43.215Z,1.10
2023-04-03T22:22:11.858Z,1.05
2023-04-03T22:24:39.559Z,1.03
2023-04-03T22:27:07.630Z,0.99
2023-04-03T22:29:35.802Z,0.99
2023-04-03T22:32:03.567Z,0.98
2023-04-03T22:34:31.540Z,0.95
2023-04-03T22:36:59.319Z,0.91
2023-04-03T22:39:27.061Z,0.91
2023-04-03T22:41:54.927Z,0.98
2023-04-03T22:44:23.076Z,1.00
2023-04-03T22:46:52.315Z,0.95
2023-04-03T22:49:20.034Z,0.89
2023-04-03T22:51:47.827Z,0.86
2023-04-03T22:54:15.620Z,0.84
2023-04-03T22:56:43.360Z,0.82
2023-04-03T22:59:11.160Z,0.78
2023-04-03T23:01:39.745Z,0.76
2023-04-03T23:04:07.586Z,0.74
2023-04-03T23:06:36.153Z,0.70
2023-04-03T23:09:03.917Z,0.69
2023-04-03T23:11:31.786Z,0.67
2023-04-03T23:14:00.143Z,0.64
2023-04-03T23:16:28.252Z,0.64
2023-04-03T23:18:55.995Z,0.65
2023-04-03T23:21:23.655Z,0.62
2023-04-03T23:23:52.362Z,0.60
2023-04-03T23:26:20.114Z,0.59
2023-04-03T23:28:48.178Z,0.57
2023-04-03T23:31:15.853Z,0.57
2023-04-03T23:36:32.091Z,0.63
2023-04-03T23:38:59.834Z,0.60
2023-04-03T23:41:27.792Z,0.59
2023-04-03T23:43:55.764Z,0.62
2023-04-03T23:46:23.554Z,0.62
2023-04-03T23:48:51.795Z,0.58
2023-04-03T23:51:19.560Z,0.54
2023-04-03T23:53:47.224Z,0.51
2023-04-03T23:56:14.987Z,0.48
2023-04-03T23:58:43.169Z,0.43
